Nantucket Memorial Airport
KACK : now visible

Airfield :











YOU CAN JOIN US ON...

 
LOGIN :

Register | Disclaimer

   EN    FR    IT 

 









Legend :    VFR   Marginal VFR   IFR   Intensive IFR   Very Intensive IFR
Visi :
Ceiling :
>= 8 km
>= 3000ft
5 to 8 km
1000 to 3000 ft
1500m to 5 km
500 to 1000 ft
800 to 1500m
200 to 500 ft
< 800m
< 200 ft
Symbols :   Thunderstorms  Fog  Heavy snow  Heavy precipitations  Wind > 20 kt






- Airport Elevation : 47 ft
- IATA code : ACK


KACK - Nantucket Memorial

CURRENT METAR :
  • 010514Z 15024G33KT 2 1/2SM BR SCT006 BKN013 OVC100 15/14 A2965 RMK AO2 PK WND 15036/0500 RAB0457E10 PRESRR P0000 T01500144

EXPIRED METARs :
  • 010510Z 15026G36KT 3SM BR SCT008 BKN015 OVC100 15/14 A2964 RMK AO2 PK WND 15036/0500 RAB0457E10 P0000 T01500144
  • 010453Z 15032G41KT 3SM BR BKN006 BKN021 OVC100 16/14 A2961 RMK AO2 PK WND 15041/0405 SLP027 T01610144 401670072
  • 010429Z 15028G36KT 4SM BR BKN006 OVC010 16/15 A2963 RMK AO2 PK WND 15041/0405 T01610150
  • 010414Z 15030G41KT 4SM BR SCT006 BKN011 OVC080 16/14 A2965 RMK AO2 PK WND 15041/0405 T01610144
  • 010403Z 15031G38KT 4SM BR BKN008 OVC080 16/14 A2964 RMK AO2 PK WND 15038/0357 T01610144
  • 010353Z 16032G42KT 5SM BR BKN008 OVC075 17/15 A2965 RMK AO2 PK WND 16042/0351 SLP039 T01670150
  • 010311Z 15026G35KT 4SM BR OVC011 16/14 A2965 RMK AO2 PK WND 15037/0300 T01560144
  • 010253Z 16026G33KT 4SM BR OVC008 16/14 A2967 RMK AO2 PK WND 16048/0154 RAE51 SLP047 P0008 60035 T01560144 55016
  • 010237Z 16024G45KT 3SM RA BR BKN008 BKN014 OVC023 16/14 A2968 RMK AO2 PK WND 16048/0154 P0008 T01610144

TAF KACK
Valid from the 01 at 00:00 until the 02 at 00:00 UTC


302324Z 0100/0124 16032G40KT 3SM -RA BR OVC015 WS020/16070KT
FM010600 16026G41KT 4SM -RA BR OVC008 WS020/17060KT
FM011300 17014G22KT 3SM BR VCSH OVC008 WS020/18045KT
FM011600 20013G23KT 3SM BR VCSH OVC008
FM012100 22019KT P6SM BKN090
KZBW FIR / North America



MET'MAP, your aeronautical weather chart ! - Copyright ORBIFLY December 2007 - Disclaimer

ORBIFLY MET'MAP TEAM :

Programming & Development : Alexandra Zaïnal
Concept & original design : Baudouin d'Aumeries
Assistance for programming : Marc-Olivier Méhu
Technical & hardware support : Manuel Goepfert

Contact : metmap@orbifly.com




SOURCES & CREDITS :

   NOAA       Earth
Advisory